sensor_id;sensor_type;location;lat;lon;timestamp;temperature;humidity
3727;DHT22;1879;45.876;12.300;2022-12-22T00:01:52;6.00;99.90
3727;DHT22;1879;45.876;12.300;2022-12-22T00:04:41;6.00;99.90
3727;DHT22;1879;45.876;12.300;2022-12-22T00:07:27;6.10;99.90
3727;DHT22;1879;45.876;12.300;2022-12-22T00:10:11;6.20;99.90
3727;DHT22;1879;45.876;12.300;2022-12-22T00:12:56;6.20;99.90
3727;DHT22;1879;45.876;12.300;2022-12-22T00:15:41;6.20;99.90
3727;DHT22;1879;45.876;12.300;2022-12-22T00:18:26;6.20;99.90
3727;DHT22;1879;45.876;12.300;2022-12-22T00:21:11;6.20;99.90
3727;DHT22;1879;45.876;12.300;2022-12-22T00:23:57;6.20;99.90
3727;DHT22;1879;45.876;12.300;2022-12-22T00:26:42;6.20;99.90
3727;DHT22;1879;45.876;12.300;2022-12-22T00:29:31;6.10;99.90
3727;DHT22;1879;45.876;12.300;2022-12-22T00:32:18;6.10;99.90
3727;DHT22;1879;45.876;12.300;2022-12-22T00:35:03;6.10;99.90
3727;DHT22;1879;45.876;12.300;2022-12-22T00:37:47;6.10;99.90
3727;DHT22;1879;45.876;12.300;2022-12-22T00:40:33;6.10;99.90
3727;DHT22;1879;45.876;12.300;2022-12-22T00:43:17;6.00;99.90
3727;DHT22;1879;45.876;12.300;2022-12-22T00:46:02;6.00;99.90
3727;DHT22;1879;45.876;12.300;2022-12-22T00:48:47;6.00;99.90
3727;DHT22;1879;45.876;12.300;2022-12-22T00:51:32;6.00;99.90
3727;DHT22;1879;45.876;12.300;2022-12-22T00:54:18;6.10;99.90
3727;DHT22;1879;45.876;12.300;2022-12-22T00:57:04;6.10;99.90
3727;DHT22;1879;45.876;12.300;2022-12-22T00:59:49;6.00;99.90
3727;DHT22;1879;45.876;12.300;2022-12-22T01:02:35;5.90;99.90
3727;DHT22;1879;45.876;12.300;2022-12-22T01:05:20;5.80;99.90
3727;DHT22;1879;45.876;12.300;2022-12-22T01:08:04;5.70;99.90
3727;DHT22;1879;45.876;12.300;2022-12-22T01:10:49;5.60;99.90
3727;DHT22;1879;45.876;12.300;2022-12-22T01:13:35;5.50;99.90
3727;DHT22;1879;45.876;12.300;2022-12-22T01:16:19;5.40;99.90
3727;DHT22;1879;45.876;12.300;2022-12-22T01:19:04;5.30;99.90
3727;DHT22;1879;45.876;12.300;2022-12-22T01:21:50;5.20;99.90
3727;DHT22;1879;45.876;12.300;2022-12-22T01:24:35;5.20;99.90
3727;DHT22;1879;45.876;12.300;2022-12-22T01:27:19;5.10;99.90
3727;DHT22;1879;45.876;12.300;2022-12-22T01:30:06;5.10;99.90
3727;DHT22;1879;45.876;12.300;2022-12-22T01:32:51;5.00;99.90
3727;DHT22;1879;45.876;12.300;2022-12-22T01:35:35;5.10;99.90
3727;DHT22;1879;45.876;12.300;2022-12-22T01:38:19;5.30;99.90
3727;DHT22;1879;45.876;12.300;2022-12-22T01:41:05;5.30;99.90
3727;DHT22;1879;45.876;12.300;2022-12-22T01:43:52;5.40;99.90
3727;DHT22;1879;45.876;12.300;2022-12-22T01:46:41;5.50;99.90
3727;DHT22;1879;45.876;12.300;2022-12-22T01:49:32;5.50;99.90
3727;DHT22;1879;45.876;12.300;2022-12-22T01:52:19;5.40;99.90
3727;DHT22;1879;45.876;12.300;2022-12-22T01:55:10;5.30;99.90
3727;DHT22;1879;45.876;12.300;2022-12-22T01:57:55;5.30;99.90
3727;DHT22;1879;45.876;12.300;2022-12-22T02:00:40;5.30;99.90
3727;DHT22;1879;45.876;12.300;2022-12-22T02:03:26;5.30;99.90
3727;DHT22;1879;45.876;12.300;2022-12-22T02:06:19;5.30;99.90
3727;DHT22;1879;45.876;12.300;2022-12-22T02:09:23;5.20;99.90
3727;DHT22;1879;45.876;12.300;2022-12-22T02:12:16;5.10;99.90
3727;DHT22;1879;45.876;12.300;2022-12-22T02:15:09;5.10;99.90
3727;DHT22;1879;45.876;12.300;2022-12-22T02:18:04;5.10;99.90
3727;DHT22;1879;45.876;12.300;2022-12-22T02:20:54;5.00;99.90
3727;DHT22;1879;45.876;12.300;2022-12-22T02:23:55;4.90;99.90
3727;DHT22;1879;45.876;12.300;2022-12-22T02:26:50;4.90;99.90
3727;DHT22;1879;45.876;12.300;2022-12-22T02:29:38;4.90;99.90
3727;DHT22;1879;45.876;12.300;2022-12-22T02:32:23;4.90;99.90
3727;DHT22;1879;45.876;12.300;2022-12-22T02:35:10;4.80;99.90
3727;DHT22;1879;45.876;12.300;2022-12-22T02:37:59;4.80;99.90
3727;DHT22;1879;45.876;12.300;2022-12-22T02:40:54;4.80;99.90
3727;DHT22;1879;45.876;12.300;2022-12-22T02:43:58;4.80;99.90
3727;DHT22;1879;45.876;12.300;2022-12-22T02:46:50;4.80;99.90
3727;DHT22;1879;45.876;12.300;2022-12-22T02:49:42;4.80;99.90
3727;DHT22;1879;45.876;12.300;2022-12-22T02:52:33;4.80;99.90
3727;DHT22;1879;45.876;12.300;2022-12-22T02:55:18;4.70;99.90
3727;DHT22;1879;45.876;12.300;2022-12-22T02:58:03;4.60;99.90
3727;DHT22;1879;45.876;12.300;2022-12-22T03:00:49;4.60;99.90
3727;DHT22;1879;45.876;12.300;2022-12-22T03:03:34;4.50;99.90
3727;DHT22;1879;45.876;12.300;2022-12-22T03:06:19;4.50;99.90
3727;DHT22;1879;45.876;12.300;2022-12-22T03:09:03;4.50;99.90
3727;DHT22;1879;45.876;12.300;2022-12-22T03:11:47;4.50;99.90
3727;DHT22;1879;45.876;12.300;2022-12-22T03:14:32;4.50;99.90
3727;DHT22;1879;45.876;12.300;2022-12-22T03:17:17;4.50;99.90
3727;DHT22;1879;45.876;12.300;2022-12-22T03:20:02;4.60;99.90
3727;DHT22;1879;45.876;12.300;2022-12-22T03:22:46;4.60;99.90
3727;DHT22;1879;45.876;12.300;2022-12-22T03:25:31;4.70;99.90
3727;DHT22;1879;45.876;12.300;2022-12-22T03:28:15;4.70;99.90
3727;DHT22;1879;45.876;12.300;2022-12-22T03:30:42;4.80;99.90
3727;DHT22;1879;45.876;12.300;2022-12-22T03:33:10;4.80;99.90
3727;DHT22;1879;45.876;12.300;2022-12-22T03:35:37;4.70;99.90
3727;DHT22;1879;45.876;12.300;2022-12-22T03:38:04;4.70;99.90
3727;DHT22;1879;45.876;12.300;2022-12-22T03:40:31;4.70;99.90
3727;DHT22;1879;45.876;12.300;2022-12-22T03:42:58;4.70;99.90
3727;DHT22;1879;45.876;12.300;2022-12-22T03:45:43;4.70;99.90
3727;DHT22;1879;45.876;12.300;2022-12-22T03:48:28;4.80;99.90
3727;DHT22;1879;45.876;12.300;2022-12-22T03:50:55;4.70;99.90
3727;DHT22;1879;45.876;12.300;2022-12-22T03:53:22;4.70;99.90
3727;DHT22;1879;45.876;12.300;2022-12-22T03:55:49;4.60;99.90
3727;DHT22;1879;45.876;12.300;2022-12-22T03:58:16;4.50;99.90
3727;DHT22;1879;45.876;12.300;2022-12-22T04:00:43;4.50;99.90
3727;DHT22;1879;45.876;12.300;2022-12-22T04:03:10;4.50;99.90
3727;DHT22;1879;45.876;12.300;2022-12-22T04:05:41;4.40;99.90
3727;DHT22;1879;45.876;12.300;2022-12-22T04:08:07;4.30;99.90
3727;DHT22;1879;45.876;12.300;2022-12-22T04:10:34;4.30;99.90
3727;DHT22;1879;45.876;12.300;2022-12-22T04:13:19;4.30;99.90
3727;DHT22;1879;45.876;12.300;2022-12-22T04:15:46;4.10;99.90
3727;DHT22;1879;45.876;12.300;2022-12-22T04:18:13;4.10;99.90
3727;DHT22;1879;45.876;12.300;2022-12-22T04:20:41;4.10;99.90
3727;DHT22;1879;45.876;12.300;2022-12-22T04:23:08;4.20;99.90
3727;DHT22;1879;45.876;12.300;2022-12-22T04:25:35;4.20;99.90
3727;DHT22;1879;45.876;12.300;2022-12-22T04:28:02;4.20;99.90
3727;DHT22;1879;45.876;12.300;2022-12-22T04:30:29;4.20;99.90
3727;DHT22;1879;45.876;12.300;2022-12-22T04:32:56;4.30;99.90
3727;DHT22;1879;45.876;12.300;2022-12-22T04:35:23;4.30;99.90
3727;DHT22;1879;45.876;12.300;2022-12-22T04:37:51;4.30;99.90
3727;DHT22;1879;45.876;12.300;2022-12-22T04:40:18;4.30;99.90
3727;DHT22;1879;45.876;12.300;2022-12-22T04:42:45;4.30;99.90
3727;DHT22;1879;45.876;12.300;2022-12-22T04:45:12;4.30;99.90
3727;DHT22;1879;45.876;12.300;2022-12-22T04:47:39;4.30;99.90
3727;DHT22;1879;45.876;12.300;2022-12-22T04:50:07;4.30;99.90
3727;DHT22;1879;45.876;12.300;2022-12-22T04:52:34;4.20;99.90
3727;DHT22;1879;45.876;12.300;2022-12-22T04:55:03;4.10;99.90
3727;DHT22;1879;45.876;12.300;2022-12-22T04:57:31;4.00;99.90
3727;DHT22;1879;45.876;12.300;2022-12-22T04:59:58;4.00;99.90
3727;DHT22;1879;45.876;12.300;2022-12-22T05:02:24;4.00;99.90
3727;DHT22;1879;45.876;12.300;2022-12-22T05:04:51;4.10;99.90
3727;DHT22;1879;45.876;12.300;2022-12-22T05:07:18;4.00;99.90
3727;DHT22;1879;45.876;12.300;2022-12-22T05:09:46;4.00;99.90
3727;DHT22;1879;45.876;12.300;2022-12-22T05:12:14;4.00;99.90
3727;DHT22;1879;45.876;12.300;2022-12-22T05:14:58;4.00;99.90
3727;DHT22;1879;45.876;12.300;2022-12-22T05:17:25;3.90;99.90
3727;DHT22;1879;45.876;12.300;2022-12-22T05:19:52;3.70;99.90
3727;DHT22;1879;45.876;12.300;2022-12-22T05:22:19;3.60;99.90
3727;DHT22;1879;45.876;12.300;2022-12-22T05:24:46;3.70;99.90
3727;DHT22;1879;45.876;12.300;2022-12-22T05:27:15;3.70;99.90
3727;DHT22;1879;45.876;12.300;2022-12-22T05:29:42;3.60;99.90
3727;DHT22;1879;45.876;12.300;2022-12-22T05:32:09;3.50;99.90
3727;DHT22;1879;45.876;12.300;2022-12-22T05:34:36;3.50;99.90
3727;DHT22;1879;45.876;12.300;2022-12-22T05:37:03;3.50;99.90
3727;DHT22;1879;45.876;12.300;2022-12-22T05:39:30;3.60;99.90
3727;DHT22;1879;45.876;12.300;2022-12-22T05:41:57;3.70;99.90
3727;DHT22;1879;45.876;12.300;2022-12-22T05:44:25;3.80;99.90
3727;DHT22;1879;45.876;12.300;2022-12-22T05:46:52;3.80;99.90
3727;DHT22;1879;45.876;12.300;2022-12-22T05:49:19;3.80;99.90
3727;DHT22;1879;45.876;12.300;2022-12-22T05:51:46;3.80;99.90
3727;DHT22;1879;45.876;12.300;2022-12-22T05:54:14;3.70;99.90
3727;DHT22;1879;45.876;12.300;2022-12-22T05:56:41;3.80;99.90
3727;DHT22;1879;45.876;12.300;2022-12-22T05:59:09;3.70;99.90
3727;DHT22;1879;45.876;12.300;2022-12-22T06:01:37;3.80;99.90
3727;DHT22;1879;45.876;12.300;2022-12-22T06:04:04;3.70;99.90
3727;DHT22;1879;45.876;12.300;2022-12-22T06:06:31;3.80;99.90
3727;DHT22;1879;45.876;12.300;2022-12-22T06:08:58;3.80;99.90
3727;DHT22;1879;45.876;12.300;2022-12-22T06:11:25;3.80;99.90
3727;DHT22;1879;45.876;12.300;2022-12-22T06:13:52;3.80;99.90
3727;DHT22;1879;45.876;12.300;2022-12-22T06:16:19;3.90;99.90
3727;DHT22;1879;45.876;12.300;2022-12-22T06:18:47;3.90;99.90
3727;DHT22;1879;45.876;12.300;2022-12-22T06:21:14;3.90;99.90
3727;DHT22;1879;45.876;12.300;2022-12-22T06:23:41;3.90;99.90
3727;DHT22;1879;45.876;12.300;2022-12-22T06:26:08;3.90;99.90
3727;DHT22;1879;45.876;12.300;2022-12-22T06:28:35;3.70;99.90
3727;DHT22;1879;45.876;12.300;2022-12-22T06:31:02;3.60;99.90
3727;DHT22;1879;45.876;12.300;2022-12-22T06:33:29;3.50;99.90
3727;DHT22;1879;45.876;12.300;2022-12-22T06:35:57;3.40;99.90
3727;DHT22;1879;45.876;12.300;2022-12-22T06:38:25;3.30;99.90
3727;DHT22;1879;45.876;12.300;2022-12-22T06:40:52;3.30;99.90
3727;DHT22;1879;45.876;12.300;2022-12-22T06:43:19;3.50;99.90
3727;DHT22;1879;45.876;12.300;2022-12-22T06:45:45;3.60;99.90
3727;DHT22;1879;45.876;12.300;2022-12-22T06:48:13;3.80;99.90
3727;DHT22;1879;45.876;12.300;2022-12-22T06:50:40;4.00;99.90
3727;DHT22;1879;45.876;12.300;2022-12-22T06:53:09;4.20;99.90
3727;DHT22;1879;45.876;12.300;2022-12-22T06:55:37;4.40;99.90
3727;DHT22;1879;45.876;12.300;2022-12-22T06:58:04;4.60;99.90
3727;DHT22;1879;45.876;12.300;2022-12-22T07:00:31;4.70;99.90
3727;DHT22;1879;45.876;12.300;2022-12-22T07:02:58;4.80;99.90
3727;DHT22;1879;45.876;12.300;2022-12-22T07:05:26;4.90;99.90
3727;DHT22;1879;45.876;12.300;2022-12-22T07:07:54;4.90;99.90
3727;DHT22;1879;45.876;12.300;2022-12-22T07:10:23;5.00;99.90
3727;DHT22;1879;45.876;12.300;2022-12-22T07:13:03;4.90;99.90
3727;DHT22;1879;45.876;12.300;2022-12-22T07:15:43;4.90;99.90
3727;DHT22;1879;45.876;12.300;2022-12-22T07:18:10;4.90;99.90
3727;DHT22;1879;45.876;12.300;2022-12-22T07:20:37;4.80;99.90
3727;DHT22;1879;45.876;12.300;2022-12-22T07:23:04;4.80;99.90
3727;DHT22;1879;45.876;12.300;2022-12-22T07:25:33;4.80;99.90
3727;DHT22;1879;45.876;12.300;2022-12-22T07:28:00;4.80;99.90
3727;DHT22;1879;45.876;12.300;2022-12-22T07:30:27;4.70;99.90
3727;DHT22;1879;45.876;12.300;2022-12-22T07:32:54;4.50;99.90
3727;DHT22;1879;45.876;12.300;2022-12-22T07:35:21;4.40;99.90
3727;DHT22;1879;45.876;12.300;2022-12-22T07:37:48;4.30;99.90
3727;DHT22;1879;45.876;12.300;2022-12-22T07:40:15;4.20;99.90
3727;DHT22;1879;45.876;12.300;2022-12-22T07:42:43;4.20;99.90
3727;DHT22;1879;45.876;12.300;2022-12-22T07:45:10;4.30;99.90
3727;DHT22;1879;45.876;12.300;2022-12-22T07:47:37;4.40;99.90
3727;DHT22;1879;45.876;12.300;2022-12-22T07:50:06;4.50;99.90
3727;DHT22;1879;45.876;12.300;2022-12-22T07:53:01;4.70;99.90
3727;DHT22;1879;45.876;12.300;2022-12-22T07:55:30;4.80;99.90
3727;DHT22;1879;45.876;12.300;2022-12-22T07:58:02;4.80;99.90
3727;DHT22;1879;45.876;12.300;2022-12-22T08:00:29;4.70;99.90
3727;DHT22;1879;45.876;12.300;2022-12-22T08:02:56;4.60;99.90
3727;DHT22;1879;45.876;12.300;2022-12-22T08:05:24;4.60;99.90
3727;DHT22;1879;45.876;12.300;2022-12-22T08:07:51;4.60;99.90
3727;DHT22;1879;45.876;12.300;2022-12-22T08:10:19;4.60;99.90
3727;DHT22;1879;45.876;12.300;2022-12-22T08:12:46;4.60;99.90
3727;DHT22;1879;45.876;12.300;2022-12-22T08:15:15;4.70;99.90
3727;DHT22;1879;45.876;12.300;2022-12-22T08:17:42;4.80;99.90
3727;DHT22;1879;45.876;12.300;2022-12-22T08:20:09;5.00;99.90
3727;DHT22;1879;45.876;12.300;2022-12-22T08:22:40;5.10;99.90
3727;DHT22;1879;45.876;12.300;2022-12-22T08:25:07;5.10;99.90
3727;DHT22;1879;45.876;12.300;2022-12-22T08:27:37;5.20;99.90
3727;DHT22;1879;45.876;12.300;2022-12-22T08:30:08;5.30;99.90
3727;DHT22;1879;45.876;12.300;2022-12-22T08:32:37;5.40;99.90
3727;DHT22;1879;45.876;12.300;2022-12-22T08:35:07;5.50;99.90
3727;DHT22;1879;45.876;12.300;2022-12-22T08:37:36;5.60;99.90
3727;DHT22;1879;45.876;12.300;2022-12-22T08:40:08;5.80;99.90
3727;DHT22;1879;45.876;12.300;2022-12-22T08:42:37;6.00;99.90
3727;DHT22;1879;45.876;12.300;2022-12-22T08:45:05;6.10;99.90
3727;DHT22;1879;45.876;12.300;2022-12-22T08:47:34;6.20;99.90
3727;DHT22;1879;45.876;12.300;2022-12-22T08:50:02;6.30;99.90
3727;DHT22;1879;45.876;12.300;2022-12-22T08:52:30;6.50;99.90
3727;DHT22;1879;45.876;12.300;2022-12-22T08:54:57;6.50;99.90
3727;DHT22;1879;45.876;12.300;2022-12-22T08:57:24;6.60;99.90
3727;DHT22;1879;45.876;12.300;2022-12-22T08:59:51;6.60;99.90
3727;DHT22;1879;45.876;12.300;2022-12-22T09:02:18;6.70;99.90
3727;DHT22;1879;45.876;12.300;2022-12-22T09:04:45;6.80;99.90
3727;DHT22;1879;45.876;12.300;2022-12-22T09:07:16;6.80;99.90
3727;DHT22;1879;45.876;12.300;2022-12-22T09:09:43;6.90;99.90
3727;DHT22;1879;45.876;12.300;2022-12-22T09:12:11;7.00;99.90
3727;DHT22;1879;45.876;12.300;2022-12-22T09:14:38;7.10;99.90
3727;DHT22;1879;45.876;12.300;2022-12-22T09:17:05;7.20;99.90
3727;DHT22;1879;45.876;12.300;2022-12-22T09:19:33;7.40;99.90
3727;DHT22;1879;45.876;12.300;2022-12-22T09:22:00;7.60;99.90
3727;DHT22;1879;45.876;12.300;2022-12-22T09:24:28;7.80;99.90
3727;DHT22;1879;45.876;12.300;2022-12-22T09:26:55;7.90;99.90
3727;DHT22;1879;45.876;12.300;2022-12-22T09:29:22;7.90;99.90
3727;DHT22;1879;45.876;12.300;2022-12-22T09:31:49;8.10;99.90
3727;DHT22;1879;45.876;12.300;2022-12-22T09:34:16;8.20;99.90
3727;DHT22;1879;45.876;12.300;2022-12-22T09:36:44;8.30;99.90
3727;DHT22;1879;45.876;12.300;2022-12-22T09:39:11;8.30;99.90
3727;DHT22;1879;45.876;12.300;2022-12-22T09:41:44;8.40;99.90
3727;DHT22;1879;45.876;12.300;2022-12-22T09:44:14;8.50;99.90
3727;DHT22;1879;45.876;12.300;2022-12-22T09:46:42;8.60;99.90
3727;DHT22;1879;45.876;12.300;2022-12-22T09:49:12;8.70;99.90
3727;DHT22;1879;45.876;12.300;2022-12-22T09:51:42;8.80;99.90
3727;DHT22;1879;45.876;12.300;2022-12-22T09:54:11;8.90;99.90
3727;DHT22;1879;45.876;12.300;2022-12-22T09:56:42;8.90;99.90
3727;DHT22;1879;45.876;12.300;2022-12-22T09:59:10;8.90;99.90
3727;DHT22;1879;45.876;12.300;2022-12-22T10:01:47;9.00;99.90
3727;DHT22;1879;45.876;12.300;2022-12-22T10:04:28;9.20;99.90
3727;DHT22;1879;45.876;12.300;2022-12-22T10:07:01;9.30;99.90
3727;DHT22;1879;45.876;12.300;2022-12-22T10:09:31;9.40;99.90
3727;DHT22;1879;45.876;12.300;2022-12-22T10:12:02;9.50;99.90
3727;DHT22;1879;45.876;12.300;2022-12-22T10:14:33;9.60;99.90
3727;DHT22;1879;45.876;12.300;2022-12-22T10:17:14;9.60;99.90
3727;DHT22;1879;45.876;12.300;2022-12-22T10:19:41;9.60;99.90
3727;DHT22;1879;45.876;12.300;2022-12-22T10:22:27;9.60;99.90
3727;DHT22;1879;45.876;12.300;2022-12-22T10:24:55;9.80;99.90
3727;DHT22;1879;45.876;12.300;2022-12-22T10:27:28;10.10;99.90
3727;DHT22;1879;45.876;12.300;2022-12-22T10:30:16;10.40;99.90
3727;DHT22;1879;45.876;12.300;2022-12-22T10:32:49;10.60;99.90
3727;DHT22;1879;45.876;12.300;2022-12-22T10:35:26;10.60;99.90
3727;DHT22;1879;45.876;12.300;2022-12-22T10:38:16;10.40;99.90
3727;DHT22;1879;45.876;12.300;2022-12-22T10:40:45;10.20;99.90
3727;DHT22;1879;45.876;12.300;2022-12-22T10:43:20;10.10;99.90
3727;DHT22;1879;45.876;12.300;2022-12-22T10:45:48;10.00;99.90
3727;DHT22;1879;45.876;12.300;2022-12-22T10:48:16;10.10;99.90
3727;DHT22;1879;45.876;12.300;2022-12-22T10:50:44;10.20;99.90
3727;DHT22;1879;45.876;12.300;2022-12-22T10:53:13;10.30;99.90
3727;DHT22;1879;45.876;12.300;2022-12-22T10:55:40;10.30;99.90
3727;DHT22;1879;45.876;12.300;2022-12-22T10:58:15;10.10;99.90
3727;DHT22;1879;45.876;12.300;2022-12-22T11:00:59;10.00;99.90
3727;DHT22;1879;45.876;12.300;2022-12-22T11:03:30;10.10;99.90
3727;DHT22;1879;45.876;12.300;2022-12-22T11:05:58;10.10;99.90
3727;DHT22;1879;45.876;12.300;2022-12-22T11:08:27;10.20;99.90
3727;DHT22;1879;45.876;12.300;2022-12-22T11:10:59;10.30;99.90
3727;DHT22;1879;45.876;12.300;2022-12-22T11:13:46;10.40;99.90
3727;DHT22;1879;45.876;12.300;2022-12-22T11:16:24;10.50;99.90
3727;DHT22;1879;45.876;12.300;2022-12-22T11:19:07;10.70;99.90
3727;DHT22;1879;45.876;12.300;2022-12-22T11:21:44;10.80;99.90
3727;DHT22;1879;45.876;12.300;2022-12-22T11:24:29;10.90;99.90
3727;DHT22;1879;45.876;12.300;2022-12-22T11:27:11;11.10;99.90
3727;DHT22;1879;45.876;12.300;2022-12-22T11:30:02;11.00;99.90
3727;DHT22;1879;45.876;12.300;2022-12-22T11:32:52;10.90;99.90
3727;DHT22;1879;45.876;12.300;2022-12-22T11:35:29;10.90;99.90
3727;DHT22;1879;45.876;12.300;2022-12-22T11:38:12;10.80;99.90
3727;DHT22;1879;45.876;12.300;2022-12-22T11:40:44;10.70;99.90
3727;DHT22;1879;45.876;12.300;2022-12-22T11:43:21;10.70;99.90
3727;DHT22;1879;45.876;12.300;2022-12-22T11:46:05;10.70;99.90
3727;DHT22;1879;45.876;12.300;2022-12-22T11:48:56;10.70;99.90
3727;DHT22;1879;45.876;12.300;2022-12-22T11:51:34;11.40;99.90
3727;DHT22;1879;45.876;12.300;2022-12-22T11:54:31;12.00;99.90
3727;DHT22;1879;45.876;12.300;2022-12-22T11:57:10;14.10;99.90
3727;DHT22;1879;45.876;12.300;2022-12-22T11:59:45;16.60;97.20
3727;DHT22;1879;45.876;12.300;2022-12-22T12:08:23;15.10;93.40
3727;DHT22;1879;45.876;12.300;2022-12-22T12:10:57;14.70;94.00
3727;DHT22;1879;45.876;12.300;2022-12-22T12:13:32;14.10;94.50
3727;DHT22;1879;45.876;12.300;2022-12-22T12:16:07;13.70;95.10
3727;DHT22;1879;45.876;12.300;2022-12-22T12:18:58;13.20;95.70
3727;DHT22;1879;45.876;12.300;2022-12-22T12:21:36;12.80;96.10
3727;DHT22;1879;45.876;12.300;2022-12-22T12:24:22;12.70;96.70
3727;DHT22;1879;45.876;12.300;2022-12-22T12:26:59;12.60;96.60
3727;DHT22;1879;45.876;12.300;2022-12-22T12:29:35;12.50;96.90
3727;DHT22;1879;45.876;12.300;2022-12-22T12:32:10;12.40;97.30
3727;DHT22;1879;45.876;12.300;2022-12-22T12:34:42;12.20;97.40
3727;DHT22;1879;45.876;12.300;2022-12-22T12:37:17;12.00;97.90
3727;DHT22;1879;45.876;12.300;2022-12-22T12:39:53;11.80;98.30
3727;DHT22;1879;45.876;12.300;2022-12-22T12:42:26;11.80;98.70
3727;DHT22;1879;45.876;12.300;2022-12-22T12:44:55;11.80;98.90
3727;DHT22;1879;45.876;12.300;2022-12-22T12:47:25;11.80;99.00
3727;DHT22;1879;45.876;12.300;2022-12-22T12:53:15;11.90;99.20
3727;DHT22;1879;45.876;12.300;2022-12-22T12:56:01;12.00;99.00
3727;DHT22;1879;45.876;12.300;2022-12-22T12:58:51;12.00;99.30
3727;DHT22;1879;45.876;12.300;2022-12-22T13:01:56;12.00;99.70
3727;DHT22;1879;45.876;12.300;2022-12-22T13:08:18;11.60;99.90
3727;DHT22;1879;45.876;12.300;2022-12-22T13:13:47;11.60;99.90
3727;DHT22;1879;45.876;12.300;2022-12-22T13:16:24;11.50;99.90
3727;DHT22;1879;45.876;12.300;2022-12-22T13:18:53;11.40;99.90
3727;DHT22;1879;45.876;12.300;2022-12-22T13:21:26;11.40;99.90
3727;DHT22;1879;45.876;12.300;2022-12-22T13:24:01;11.30;99.90
3727;DHT22;1879;45.876;12.300;2022-12-22T13:26:32;11.20;99.90
3727;DHT22;1879;45.876;12.300;2022-12-22T13:29:02;11.20;99.90
3727;DHT22;1879;45.876;12.300;2022-12-22T13:31:40;11.20;99.90
3727;DHT22;1879;45.876;12.300;2022-12-22T13:34:29;11.20;99.90
3727;DHT22;1879;45.876;12.300;2022-12-22T13:36:58;11.20;99.90
3727;DHT22;1879;45.876;12.300;2022-12-22T13:39:28;11.20;99.90
3727;DHT22;1879;45.876;12.300;2022-12-22T13:41:56;11.20;99.90
3727;DHT22;1879;45.876;12.300;2022-12-22T13:44:28;11.10;99.90
3727;DHT22;1879;45.876;12.300;2022-12-22T13:47:02;10.90;99.90
3727;DHT22;1879;45.876;12.300;2022-12-22T13:49:31;10.90;99.90
3727;DHT22;1879;45.876;12.300;2022-12-22T13:52:00;10.80;99.90
3727;DHT22;1879;45.876;12.300;2022-12-22T13:54:32;10.70;99.90
3727;DHT22;1879;45.876;12.300;2022-12-22T13:57:02;10.80;99.90
3727;DHT22;1879;45.876;12.300;2022-12-22T13:59:32;10.80;99.90
3727;DHT22;1879;45.876;12.300;2022-12-22T14:02:01;10.90;99.90
3727;DHT22;1879;45.876;12.300;2022-12-22T14:04:29;10.90;99.90
3727;DHT22;1879;45.876;12.300;2022-12-22T14:06:56;10.90;99.90
3727;DHT22;1879;45.876;12.300;2022-12-22T14:09:36;10.90;99.90
3727;DHT22;1879;45.876;12.300;2022-12-22T14:12:06;10.90;99.90
3727;DHT22;1879;45.876;12.300;2022-12-22T17:08:16;9.10;99.90
3727;DHT22;1879;45.876;12.300;2022-12-22T17:10:43;9.00;99.90
3727;DHT22;1879;45.876;12.300;2022-12-22T17:13:10;8.90;99.90
3727;DHT22;1879;45.876;12.300;2022-12-22T17:15:37;8.90;99.90
3727;DHT22;1879;45.876;12.300;2022-12-22T17:18:14;8.80;99.90
3727;DHT22;1879;45.876;12.300;2022-12-22T17:20:42;8.80;99.90
3727;DHT22;1879;45.876;12.300;2022-12-22T17:23:22;8.70;99.90
3727;DHT22;1879;45.876;12.300;2022-12-22T17:25:52;8.60;99.90
3727;DHT22;1879;45.876;12.300;2022-12-22T17:28:19;8.50;99.90
3727;DHT22;1879;45.876;12.300;2022-12-22T17:30:46;8.50;99.90
3727;DHT22;1879;45.876;12.300;2022-12-22T17:33:14;8.50;99.90
3727;DHT22;1879;45.876;12.300;2022-12-22T17:35:42;8.50;99.90
3727;DHT22;1879;45.876;12.300;2022-12-22T17:38:12;8.40;99.90
3727;DHT22;1879;45.876;12.300;2022-12-22T17:40:39;8.40;99.90
3727;DHT22;1879;45.876;12.300;2022-12-22T17:43:11;8.30;99.90
3727;DHT22;1879;45.876;12.300;2022-12-22T17:45:38;8.30;99.90
3727;DHT22;1879;45.876;12.300;2022-12-22T17:48:06;8.30;99.90
3727;DHT22;1879;45.876;12.300;2022-12-22T17:50:33;8.30;99.90
3727;DHT22;1879;45.876;12.300;2022-12-22T17:53:00;8.30;99.90
3727;DHT22;1879;45.876;12.300;2022-12-22T17:55:29;8.30;99.90
3727;DHT22;1879;45.876;12.300;2022-12-22T17:57:57;8.20;99.90
3727;DHT22;1879;45.876;12.300;2022-12-22T18:00:26;8.20;99.90
3727;DHT22;1879;45.876;12.300;2022-12-22T18:02:54;8.20;99.90
3727;DHT22;1879;45.876;12.300;2022-12-22T18:05:23;8.20;99.90
3727;DHT22;1879;45.876;12.300;2022-12-22T18:07:52;8.30;99.90
3727;DHT22;1879;45.876;12.300;2022-12-22T18:10:26;8.30;99.90
3727;DHT22;1879;45.876;12.300;2022-12-22T18:12:57;8.40;99.90
3727;DHT22;1879;45.876;12.300;2022-12-22T18:15:26;8.40;99.90
3727;DHT22;1879;45.876;12.300;2022-12-22T18:17:54;8.40;99.90
3727;DHT22;1879;45.876;12.300;2022-12-22T18:20:22;8.40;99.90
3727;DHT22;1879;45.876;12.300;2022-12-22T18:22:51;8.40;99.90
3727;DHT22;1879;45.876;12.300;2022-12-22T18:25:22;8.40;99.90
3727;DHT22;1879;45.876;12.300;2022-12-22T18:27:49;8.40;99.90
3727;DHT22;1879;45.876;12.300;2022-12-22T18:30:20;8.40;99.90
3727;DHT22;1879;45.876;12.300;2022-12-22T18:32:49;8.40;99.90
3727;DHT22;1879;45.876;12.300;2022-12-22T18:35:16;8.30;99.90
3727;DHT22;1879;45.876;12.300;2022-12-22T18:37:44;8.30;99.90
3727;DHT22;1879;45.876;12.300;2022-12-22T18:40:24;8.30;99.90
3727;DHT22;1879;45.876;12.300;2022-12-22T18:42:52;8.30;99.90
3727;DHT22;1879;45.876;12.300;2022-12-22T18:45:23;8.30;99.90
3727;DHT22;1879;45.876;12.300;2022-12-22T18:47:51;8.40;99.90
3727;DHT22;1879;45.876;12.300;2022-12-22T18:50:19;8.30;99.90
3727;DHT22;1879;45.876;12.300;2022-12-22T18:52:47;8.30;99.90
3727;DHT22;1879;45.876;12.300;2022-12-22T18:55:17;8.30;99.90
3727;DHT22;1879;45.876;12.300;2022-12-22T18:57:44;8.30;99.90
3727;DHT22;1879;45.876;12.300;2022-12-22T19:00:14;8.30;99.90
3727;DHT22;1879;45.876;12.300;2022-12-22T19:02:44;8.20;99.90
3727;DHT22;1879;45.876;12.300;2022-12-22T19:05:14;8.20;99.90
3727;DHT22;1879;45.876;12.300;2022-12-22T19:07:41;8.20;99.90
3727;DHT22;1879;45.876;12.300;2022-12-22T19:10:13;8.10;99.90
3727;DHT22;1879;45.876;12.300;2022-12-22T19:12:40;8.00;99.90
3727;DHT22;1879;45.876;12.300;2022-12-22T19:15:17;8.00;99.90
3727;DHT22;1879;45.876;12.300;2022-12-22T19:17:47;7.90;99.90
3727;DHT22;1879;45.876;12.300;2022-12-22T19:20:16;7.90;99.90
3727;DHT22;1879;45.876;12.300;2022-12-22T19:22:44;8.00;99.90
3727;DHT22;1879;45.876;12.300;2022-12-22T19:25:14;8.00;99.90
3727;DHT22;1879;45.876;12.300;2022-12-22T19:27:41;8.00;99.90
3727;DHT22;1879;45.876;12.300;2022-12-22T19:30:15;8.00;99.90
3727;DHT22;1879;45.876;12.300;2022-12-22T19:32:44;8.00;99.90
3727;DHT22;1879;45.876;12.300;2022-12-22T19:35:15;8.00;99.90
3727;DHT22;1879;45.876;12.300;2022-12-22T19:37:43;8.00;99.90
3727;DHT22;1879;45.876;12.300;2022-12-22T19:40:11;8.00;99.90
3727;DHT22;1879;45.876;12.300;2022-12-22T19:42:39;8.00;99.90
3727;DHT22;1879;45.876;12.300;2022-12-22T19:45:15;7.90;99.90
3727;DHT22;1879;45.876;12.300;2022-12-22T19:47:42;7.90;99.90
3727;DHT22;1879;45.876;12.300;2022-12-22T19:50:15;7.90;99.90